Biwabik, Minnesota
Current Conditions -  °F | °C
As of 3:31 AM on Saturday 20 Dec 2014 (Local Time) from KEVM Reporting Station
Light Snow Light Snow  
Wind Chill: -7°   Ceiling: 700
Heat Index: -3°   Visibility: 2.5mi
Dew Point: -4°   Wind: 7mph
Humidity: 93%   Direction: 160°SSE
Pressure: 30.1"   Gusts: NA
Location:  47.53°N, 92.34°W
Report Text: KEVM 200931Z AUTO 16006KT 2 1/2SM -SN OVC007 M03/M04 A3010 RMK AO2
Loading
Personal Weather Stations






























Interactive Weather Map New forecast layout! Learn more

10-Day Weather Forecast

Advertisements
Track Severe Weather on mobile